Time;durP1;ratioP1;P1;durP2;ratioP2;P2;SDS_P1;SDS_P2;PMS_P1;PMS_P2;Temp;Humidity;BMP_temperature;BMP_pressure;BME280_temperature;BME280_humidity;BME280_pressure;Samples;Min_cycle;Max_cycle;Signal;HPM_P1;HPM_P2
2023/03/22 00:01:18;;;;;;;9.27;4.40;;;;;;;7.50;100.00;100988.91;5095731;28;20020;-81
2023/03/22 00:03:45;;;;;;;8.25;3.80;;;;;;;7.49;100.00;100982.84;5095976;28;20548;-81
2023/03/22 00:06:11;;;;;;;8.55;3.80;;;;;;;7.43;100.00;100975.13;5095489;28;20012;-81
2023/03/22 00:08:36;;;;;;;8.23;3.83;;;;;;;7.41;100.00;100968.22;5096248;28;20062;-81
2023/03/22 00:11:03;;;;;;;7.78;3.75;;;;;;;7.36;100.00;100955.31;5092068;28;20052;-81
2023/03/22 00:13:29;;;;;;;8.75;3.80;;;;;;;7.44;100.00;100975.97;5085212;28;20028;-81
2023/03/22 00:15:56;;;;;;;10.27;3.65;;;;;;;7.36;100.00;100962.22;5093902;28;20059;-81
2023/03/22 00:18:22;;;;;;;10.75;4.50;;;;;;;7.34;100.00;100949.25;5083219;28;20020;-80
2023/03/22 00:20:52;;;;;;;8.38;3.60;;;;;;;7.47;100.00;100963.84;5095541;28;20035;-81
2023/03/22 00:23:17;;;;;;;9.18;3.97;;;;;;;7.48;100.00;100956.91;5089147;28;20023;-80
2023/03/22 00:25:44;;;;;;;8.30;3.75;;;;;;;7.52;100.00;100948.25;5087849;28;20024;-80
2023/03/22 00:28:10;;;;;;;9.00;3.88;;;;;;;7.54;100.00;100954.25;5095769;28;20070;-80
2023/03/22 00:30:35;;;;;;;8.73;3.70;;;;;;;7.55;100.00;100947.34;5095609;28;20016;-81
2023/03/22 00:33:00;;;;;;;14.13;4.05;;;;;;;7.47;100.00;100945.69;5092344;28;20035;-81
2023/03/22 00:35:25;;;;;;;8.35;4.05;;;;;;;7.46;100.00;100946.56;5084270;28;20016;-81
2023/03/22 00:37:51;;;;;;;8.40;4.05;;;;;;;7.30;100.00;100916.44;5094859;28;20103;-81
2023/03/22 00:40:16;;;;;;;7.93;4.10;;;;;;;7.41;100.00;100935.34;5094982;28;20035;-81
2023/03/22 00:42:42;;;;;;;12.43;4.70;;;;;;;7.41;100.00;100932.75;5095609;28;20051;-81
2023/03/22 00:45:10;;;;;;;10.93;4.90;;;;;;;7.40;100.00;100936.25;5091014;28;20016;-81
2023/03/22 00:47:36;;;;;;;12.88;4.50;;;;;;;7.40;100.00;100928.44;5085526;28;20024;-81
2023/03/22 00:50:02;;;;;;;13.77;5.03;;;;;;;7.40;100.00;100925.00;5092582;28;20515;-81
2023/03/22 00:52:28;;;;;;;10.00;4.63;;;;;;;7.44;100.00;100921.50;5084051;28;20012;-81
2023/03/22 00:54:54;;;;;;;10.63;4.93;;;;;;;7.34;100.00;100905.16;5094540;28;20024;-81
2023/03/22 00:57:22;;;;;;;14.65;5.85;;;;;;;7.37;100.00;100891.31;5095677;28;20356;-81
2023/03/22 00:59:48;;;;;;;15.07;5.63;;;;;;;7.48;100.00;100903.28;5095012;28;20028;-81
2023/03/22 01:02:13;;;;;;;11.50;5.50;;;;;;;7.51;100.00;100902.41;5092835;28;20074;-80
2023/03/22 01:04:46;;;;;;;17.95;7.20;;;;;;;7.52;100.00;100896.38;5082377;28;20047;-81
2023/03/22 01:07:16;;;;;;;12.50;6.00;;;;;;;7.52;100.00;100886.00;5095274;28;20024;-80
2023/03/22 01:09:43;;;;;;;13.88;7.40;;;;;;;7.64;100.00;100895.34;5094189;28;20020;-81
2023/03/22 01:12:10;;;;;;;12.38;7.38;;;;;;;7.64;100.00;100888.44;5094650;28;20145;-81
2023/03/22 01:14:35;;;;;;;13.90;7.40;;;;;;;7.65;100.00;100892.78;5093737;28;20027;-80
2023/03/22 01:17:01;;;;;;;16.63;7.85;;;;;;;7.53;100.00;100864.34;5094936;28;20399;-81
2023/03/22 01:19:28;;;;;;;17.20;8.45;;;;;;;7.69;100.00;100885.81;5086031;28;20512;-80
2023/03/22 01:21:53;;;;;;;16.58;7.82;;;;;;;7.69;100.00;100876.28;5094190;28;20475;-81
2023/03/22 01:24:19;;;;;;;17.05;8.25;;;;;;;7.69;100.00;100865.91;5088740;28;20049;-80
2023/03/22 01:26:45;;;;;;;18.80;8.00;;;;;;;7.61;100.00;100848.69;5079886;28;20476;-81
2023/03/22 01:29:10;;;;;;;16.35;8.52;;;;;;;7.62;100.00;100847.81;5093648;28;20077;-81
2023/03/22 01:31:35;;;;;;;16.20;8.68;;;;;;;7.74;100.00;100845.94;5083956;28;20111;-81
2023/03/22 01:34:02;;;;;;;15.05;8.98;;;;;;;7.80;100.00;100838.97;5088538;28;20036;-81
2023/03/22 01:36:27;;;;;;;14.35;8.43;;;;;;;7.77;100.00;100823.44;5073081;28;20387;-81
2023/03/22 01:38:53;;;;;;;17.73;9.80;;;;;;;7.86;100.00;100829.38;5087934;28;20055;-81
2023/03/22 01:41:18;;;;;;;18.00;9.45;;;;;;;7.90;100.00;100820.66;5074234;28;20029;-81
2023/03/22 01:43:43;;;;;;;18.30;10.20;;;;;;;7.86;100.00;100811.19;5085579;28;20034;-80
2023/03/22 01:46:09;;;;;;;15.57;10.20;;;;;;;7.86;100.00;100802.56;5094268;28;20024;-81
2023/03/22 01:48:44;;;;;;;15.80;10.55;;;;;;;7.82;100.00;100780.97;5084169;28;20116;-80
2023/03/22 01:51:17;;;;;;;20.55;10.65;;;;;;;8.05;100.00;100804.03;5073270;28;20016;-80
2023/03/22 01:53:50;;;;;;;15.75;11.23;;;;;;;8.12;100.00;100797.00;5073629;28;20035;-80
2023/03/22 01:56:20;;;;;;;19.27;12.15;;;;;;;8.20;100.00;100801.19;5076754;28;20036;-80
2023/03/22 01:58:47;;;;;;;21.35;11.10;;;;;;;8.17;100.00;100798.66;5093042;28;20415;-80
2023/03/22 02:01:13;;;;;;;17.02;11.32;;;;;;;8.26;100.00;100802.00;5092662;28;20031;-81
2023/03/22 02:04:06;;;;;;;16.73;11.43;;;;;;;8.28;100.00;100795.91;5079359;22;20553;-81
2023/03/22 02:06:32;;;;;;;17.98;11.07;;;;;;;8.25;100.00;100784.72;5073304;28;20487;-81
2023/03/22 02:08:57;;;;;;;19.13;12.15;;;;;;;8.26;100.00;100792.47;5073449;28;20456;-81
2023/03/22 02:11:41;;;;;;;17.80;12.32;;;;;;;8.25;100.00;100785.56;5072917;28;20031;-80
2023/03/22 02:14:21;;;;;;;;;;;;;;;8.30;100.00;100786.34;5074195;28;20020;-80
2023/03/22 02:16:49;;;;;;;19.67;11.77;;;;;;;8.34;100.00;100776.78;5073360;28;19912;-81
2023/03/22 02:20:03;;;;;;;18.67;12.13;;;;;;;8.33;100.00;100775.03;5072760;28;20103;-81
2023/03/22 02:23:10;;;;;;;17.67;11.40;;;;;;;8.34;100.00;100774.19;5048404;28;20044;-80
2023/03/22 02:26:09;;;;;;;15.82;11.38;;;;;;;8.24;100.00;100757.88;5058660;28;20032;-80
2023/03/22 02:28:55;;;;;;;17.88;11.65;;;;;;;8.42;100.00;100773.19;5072930;28;20033;-80
2023/03/22 02:31:32;;;;;;;18.55;11.52;;;;;;;8.41;100.00;100766.28;5073187;28;20074;-81
2023/03/22 02:34:27;;;;;;;16.05;11.07;;;;;;;8.48;100.00;100766.22;5072685;28;20022;-80
2023/03/22 02:37:36;;;;;;;15.68;10.38;;;;;;;8.42;100.00;100756.75;5073323;28;20028;-81
2023/03/22 02:40:10;;;;;;;16.48;10.82;;;;;;;8.50;100.00;100764.41;5072423;28;20028;-81
2023/03/22 02:42:54;;;;;;;16.27;10.50;;;;;;;8.55;100.00;100758.28;5072740;28;20024;-81
2023/03/22 02:45:33;;;;;;;16.83;10.25;;;;;;;8.58;100.00;100763.44;5073074;28;20063;-80
2023/03/22 02:48:07;;;;;;;14.65;10.10;;;;;;;8.60;100.00;100753.88;5059996;28;20032;-81
2023/03/22 02:50:50;;;;;;;18.60;9.98;;;;;;;8.57;100.00;100756.53;5072712;28;20049;-81
2023/03/22 02:53:26;;;;;;;16.10;9.55;;;;;;;8.46;100.00;100735.03;5071868;28;20035;-80
2023/03/22 02:56:01;;;;;;;18.75;9.30;;;;;;;8.59;100.00;100749.53;5072421;28;20056;-80
2023/03/22 02:58:34;;;;;;;13.60;9.15;;;;;;;8.53;100.00;100734.03;5072805;28;20166;-81
2023/03/22 03:01:04;;;;;;;14.32;9.60;;;;;;;8.61;100.00;100736.53;5072140;28;20028;-81
2023/03/22 03:03:32;;;;;;;13.70;9.10;;;;;;;8.63;100.00;100734.75;5072186;28;20094;-81
2023/03/22 03:06:07;;;;;;;14.63;8.98;;;;;;;8.59;100.00;100741.75;5072604;28;20124;-80
2023/03/22 03:08:33;;;;;;;14.73;8.00;;;;;;;8.40;100.00;100715.22;5071804;28;20047;-81
2023/03/22 03:10:59;;;;;;;12.38;7.95;;;;;;;8.31;100.00;100699.75;5072723;28;20107;-81
2023/03/22 03:13:27;;;;;;;12.05;8.20;;;;;;;8.51;100.00;100733.22;5072669;28;20562;-81
2023/03/22 03:15:58;;;;;;;12.73;7.63;;;;;;;7.98;100.00;100641.44;5206840;22;20251;-81
2023/03/22 03:19:03;;;;;;;14.27;7.38;;;;;;;8.53;100.00;100728.84;5072652;28;20071;-80
2023/03/22 03:21:52;;;;;;;12.85;7.60;;;;;;;8.56;100.00;100726.19;5071658;28;20035;-81
2023/03/22 03:24:30;;;;;;;17.73;8.00;;;;;;;8.57;100.00;100725.34;5072105;28;20111;-81
2023/03/22 03:34:12;;;;;;;10.68;6.40;;;;;;;7.98;100.00;100631.91;5072582;28;20043;-81
2023/03/22 03:40:16;;;;;;;10.48;6.65;;;;;;;8.30;100.00;100682.44;5068056;28;20059;-81
2023/03/22 03:42:54;;;;;;;11.13;5.93;;;;;;;8.54;100.00;100729.72;5061434;28;20484;-80
2023/03/22 03:45:21;;;;;;;11.48;5.88;;;;;;;8.53;100.00;100709.81;5076643;28;20059;-80
2023/03/22 03:47:54;;;;;;;11.70;6.38;;;;;;;8.46;100.00;100711.66;5075959;28;20024;-81
2023/03/22 03:50:19;;;;;;;10.20;5.82;;;;;;;8.51;100.00;100725.44;5075797;28;20028;-81
2023/03/22 03:52:45;;;;;;;8.27;4.97;;;;;;;8.43;100.00;100720.34;5076094;28;20426;-81
2023/03/22 03:55:10;;;;;;;9.77;5.72;;;;;;;8.38;100.00;100721.34;5065783;28;20048;-81
2023/03/22 03:57:38;;;;;;;9.60;5.38;;;;;;;8.40;100.00;100733.41;5071880;28;20071;-81
2023/03/22 04:00:04;;;;;;;9.43;5.70;;;;;;;8.26;100.00;100716.28;5076041;28;20384;-80
2023/03/22 04:02:29;;;;;;;9.18;5.82;;;;;;;8.30;100.00;100736.13;5075492;28;20040;-81
2023/03/22 04:04:55;;;;;;;12.60;5.53;;;;;;;8.29;100.00;100732.69;5075666;28;20024;-81
2023/03/22 04:07:20;;;;;;;10.38;5.43;;;;;;;8.23;100.00;100734.53;5076046;28;20044;-81
2023/03/22 04:09:45;;;;;;;10.55;5.30;;;;;;;8.11;100.00;100714.78;5075625;28;20095;-81
2023/03/22 04:12:11;;;;;;;10.82;5.28;;;;;;;8.09;100.00;100708.78;5075200;28;20074;-81
2023/03/22 04:14:36;;;;;;;9.30;5.13;;;;;;;8.13;100.00;100729.47;5075672;28;20020;-81
2023/03/22 04:17:02;;;;;;;11.10;5.22;;;;;;;8.11;100.00;100725.16;5075799;28;20472;-81
2023/03/22 04:19:27;;;;;;;10.63;5.55;;;;;;;8.07;100.00;100726.09;5074757;28;20059;-81
2023/03/22 04:21:53;;;;;;;8.80;5.00;;;;;;;8.11;100.00;100726.03;5075564;28;20055;-81
2023/03/22 04:24:20;;;;;;;13.23;5.30;;;;;;;8.11;100.00;100727.75;5074592;28;20063;-81
2023/03/22 04:26:46;;;;;;;9.45;4.78;;;;;;;8.04;100.00;100716.59;5074944;28;20024;-81
2023/03/22 04:29:11;;;;;;;11.15;5.25;;;;;;;8.10;100.00;100718.25;5075774;28;20028;-81
2023/03/22 04:31:37;;;;;;;9.82;4.95;;;;;;;8.09;100.00;100703.56;5074708;28;20798;-81
2023/03/22 04:34:04;;;;;;;8.68;5.13;;;;;;;8.08;100.00;100713.09;5075559;28;20036;-81
2023/03/22 04:36:35;;;;;;;12.35;5.50;;;;;;;8.03;100.00;100699.31;5068499;28;20063;-81
2023/03/22 04:39:10;;;;;;;9.85;4.68;;;;;;;8.09;100.00;100712.22;5054973;28;20384;-81
2023/03/22 04:41:36;;;;;;;14.02;5.15;;;;;;;7.95;100.00;100685.63;5062151;28;20028;-81
2023/03/22 04:44:03;;;;;;;15.65;5.57;;;;;;;8.09;100.00;100711.38;5075522;28;20421;-81
2023/03/22 04:46:29;;;;;;;9.88;4.47;;;;;;;8.07;100.00;100706.19;5073204;28;20031;-81
2023/03/22 04:48:55;;;;;;;8.48;5.13;;;;;;;8.04;100.00;100706.22;5075650;28;20043;-81
2023/03/22 04:51:20;;;;;;;9.35;4.68;;;;;;;8.03;100.00;100706.25;5075301;28;20464;-81
2023/03/22 04:53:45;;;;;;;10.73;4.78;;;;;;;8.00;100.00;100693.31;5074079;28;20074;-81
2023/03/22 04:56:12;;;;;;;14.05;5.25;;;;;;;8.08;100.00;100710.50;5075366;28;20515;-81
2023/03/22 04:58:39;;;;;;;8.95;4.82;;;;;;;8.12;100.00;100706.13;5074722;28;20468;-81
2023/03/22 05:01:05;;;;;;;10.55;4.65;;;;;;;8.15;100.00;100698.28;5073735;28;20043;-80
2023/03/22 05:03:31;;;;;;;8.73;4.43;;;;;;;8.06;100.00;100682.84;5074663;28;20028;-81
2023/03/22 05:05:58;;;;;;;14.05;4.68;;;;;;;8.22;100.00;100697.31;5074895;28;20024;-80
2023/03/22 05:08:25;;;;;;;8.10;4.55;;;;;;;8.18;100.00;100691.31;5059960;28;20025;-81
2023/03/22 05:13:27;;;;;;;9.45;4.50;;;;;;;8.14;100.00;100676.66;5241970;22;20052;-81
2023/03/22 05:16:11;;;;;;;8.20;4.18;;;;;;;7.67;100.00;100596.94;5074413;28;20044;-81
2023/03/22 05:18:44;;;;;;;9.25;4.15;;;;;;;8.17;100.00;100693.91;5074299;28;20506;-81
2023/03/22 05:21:27;;;;;;;10.68;4.03;;;;;;;7.50;100.00;100595.44;5055459;28;20480;-81
2023/03/22 05:24:04;;;;;;;8.27;3.85;;;;;;;7.64;100.00;100609.94;5060171;28;20020;-81
2023/03/22 05:26:30;;;;;;;10.00;3.88;;;;;;;7.67;100.00;100609.91;5074455;28;20100;-81
2023/03/22 05:29:09;;;;;;;8.13;4.00;;;;;;;7.76;100.00;100624.50;5054913;28;20441;-81
2023/03/22 05:31:35;;;;;;;10.77;4.05;;;;;;;8.06;100.00;100688.91;5054375;28;20025;-81
2023/03/22 05:34:06;;;;;;;9.15;3.53;;;;;;;8.13;100.00;100697.44;5054235;28;20075;-81
2023/03/22 05:36:35;;;;;;;5.82;3.35;;;;;;;8.11;100.00;100684.50;5053352;28;20349;-81
2023/03/22 05:39:01;;;;;;;8.25;3.50;;;;;;;8.18;100.00;100688.72;5054364;28;20041;-81
2023/03/22 05:41:26;;;;;;;8.20;3.30;;;;;;;8.18;100.00;100691.31;5054152;28;20063;-81
2023/03/22 05:43:53;;;;;;;13.07;4.05;;;;;;;8.12;100.00;100673.22;5053338;28;20021;-81
2023/03/22 05:46:25;;;;;;;9.98;3.42;;;;;;;8.14;100.00;100674.06;5054203;28;20025;-81
2023/03/22 05:55:43;;;;;;;9.32;3.67;;;;;;;7.62;100.00;100589.22;5068121;28;20063;-81
2023/03/22 05:58:30;;;;;;;10.52;3.05;;;;;;;8.09;100.00;100662.88;5061151;28;20052;-81
2023/03/22 06:00:59;;;;;;;8.85;3.30;;;;;;;8.09;100.00;100654.25;5059959;28;20108;-81
2023/03/22 06:04:17;;;;;;;8.45;3.40;;;;;;;8.39;100.00;100702.25;5073294;28;20013;-81
2023/03/22 06:23:42;;;;;;;7.97;3.08;;;;;;;8.49;100.00;100687.38;5059208;28;20398;-81
2023/03/22 06:29:48;;;;;;;12.98;3.55;;;;;;;8.52;100.00;100650.94;4961828;28;20082;-81
2023/03/22 06:32:28;;;;;;;8.77;3.95;;;;;;;8.26;100.00;100597.69;4921964;28;20027;-81
2023/03/22 06:39:39;;;;;;;8.45;4.10;;;;;;;8.96;100.00;100689.13;5066227;28;20039;-81
2023/03/22 06:55:56;;;;;;;8.38;3.88;;;;;;;9.39;100.00;100690.84;5019032;28;20116;-81
2023/03/22 07:02:15;;;;;;;9.80;4.60;;;;;;;9.28;100.00;100599.16;5030552;28;20091;-81
2023/03/22 07:08:38;;;;;;;10.48;4.18;;;;;;;9.85;100.00;100690.69;4963327;28;20395;-81
2023/03/22 07:11:04;;;;;;;9.27;4.25;;;;;;;9.59;100.00;100654.84;4966659;28;20046;-81
2023/03/22 07:16:58;;;;;;;12.35;4.40;;;;;;;9.31;100.00;100601.69;4975728;28;20095;-81
2023/03/22 07:29:57;;;;;;;11.48;4.97;;;;;;;10.14;100.00;100693.53;5091251;28;20545;-81
2023/03/22 07:32:26;;;;;;;9.50;5.35;;;;;;;10.09;100.00;100677.97;5092342;28;20480;-81
2023/03/22 07:34:54;;;;;;;9.38;5.03;;;;;;;9.96;100.00;100635.75;5091435;28;20035;-81
2023/03/22 07:37:26;;;;;;;12.27;4.85;;;;;;;9.76;100.00;100591.13;5092703;28;20095;-81
2023/03/22 07:40:44;;;;;;;9.90;4.68;;;;;;;10.44;100.00;100695.41;5092209;28;20031;-82
2023/03/22 07:43:25;;;;;;;9.68;4.88;;;;;;;10.04;100.00;100606.94;5071586;28;20123;-81
2023/03/22 08:33:28;;;;;;;10.40;2.33;;;;;;;11.04;92.29;100612.09;5076077;28;20044;-82
2023/03/22 08:52:52;;;;;;;12.15;2.83;;;;;;;11.94;86.77;100683.34;5094620;28;20035;-81
2023/03/22 09:18:28;;;;;;;6.75;2.55;;;;;;;12.22;80.97;100569.22;5040775;28;20494;-82
2023/03/22 09:24:19;;;;;;;6.93;2.20;;;;;;;12.93;78.32;100638.16;5188719;22;20077;-82
2023/03/22 09:26:45;;;;;;;9.30;2.58;;;;;;;13.01;76.01;100659.66;5093793;28;20557;-82
2023/03/22 09:29:11;;;;;;;7.70;2.50;;;;;;;12.87;76.49;100647.94;5095077;28;20019;-82
2023/03/22 09:31:36;;;;;;;10.30;2.50;;;;;;;12.79;77.40;100641.28;5094674;28;20379;-81
2023/03/22 09:34:01;;;;;;;6.18;2.08;;;;;;;12.87;77.97;100658.41;5093163;28;20785;-81
2023/03/22 09:36:27;;;;;;;8.85;2.42;;;;;;;12.78;77.30;100652.66;5094636;28;20040;-81
2023/03/22 09:38:52;;;;;;;4.95;2.00;;;;;;;12.56;75.62;100639.50;5094358;28;20038;-81
2023/03/22 09:41:24;;;;;;;7.60;2.35;;;;;;;12.47;79.50;100643.28;5093718;28;20016;-81
2023/03/22 09:44:00;;;;;;;7.20;2.13;;;;;;;12.43;77.98;100664.34;5094311;28;20028;-81
2023/03/22 09:46:32;;;;;;;8.32;2.50;;;;;;;12.31;78.52;100658.63;5094855;28;20111;-81
2023/03/22 09:49:06;;;;;;;12.85;2.10;;;;;;;12.33;79.36;100654.19;5093698;28;20024;-81
2023/03/22 09:51:40;;;;;;;7.95;2.20;;;;;;;12.22;79.51;100647.59;5094215;28;20103;-82
2023/03/22 09:54:18;;;;;;;7.75;2.13;;;;;;;12.14;79.23;100650.50;5094225;28;20021;-81
2023/03/22 09:57:09;;;;;;;7.22;2.10;;;;;;;12.22;80.72;100661.53;5093300;28;20024;-82
2023/03/22 09:59:43;;;;;;;12.32;2.92;;;;;;;12.19;79.62;100654.63;5048325;28;20043;-81
2023/03/22 10:02:51;;;;;;;6.88;1.92;;;;;;;12.21;82.64;100652.00;5093294;28;20083;-81
2023/03/22 10:05:30;;;;;;;6.05;1.90;;;;;;;12.04;80.42;100659.53;5083674;28;20141;-82
2023/03/22 10:21:47;;;;;;;;;;;;;;;;;;;;;
2023/03/22 10:32:02;;;;;;;7.00;2.10;;;;;;;11.60;89.05;100682.63;5080586;28;20043;-81
2023/03/22 11:02:26;;;;;;;10.40;3.22;;;;;;;9.75;100.00;100680.53;5079836;28;20573;-83
2023/03/22 11:57:56;;;;;;;;;;;;;;;;;;;;;
2023/03/22 13:12:14;;;;;;;6.43;2.17;;;;;;;11.40;100.00;100631.00;5094882;28;20153;-81
2023/03/22 13:14:51;;;;;;;4.47;1.90;;;;;;;11.41;100.00;100633.59;5094756;28;20498;-82
2023/03/22 13:24:11;;;;;;;6.47;1.90;;;;;;;11.41;100.00;100620.53;5002377;28;20103;-81
2023/03/22 13:33:38;;;;;;;6.15;2.20;;;;;;;11.16;99.68;100575.22;5003601;28;20097;-82
2023/03/22 13:36:24;;;;;;;8.70;2.30;;;;;;;11.49;100.00;100628.97;5067016;28;20052;-81
2023/03/22 13:39:11;;;;;;;5.80;2.20;;;;;;;11.51;100.00;100622.84;5073841;28;20108;-82
2023/03/22 13:41:37;;;;;;;5.70;2.30;;;;;;;11.51;99.98;100620.25;5073410;28;20029;-82
2023/03/22 13:44:24;;;;;;;6.18;2.65;;;;;;;11.51;100.00;100615.91;5074388;28;20035;-81
2023/03/22 15:42:36;;;;;;;11.02;4.93;;;;;;;9.66;100.00;100472.50;4929118;29;20055;-81
2023/03/22 15:45:39;;;;;;;10.93;5.30;;;;;;;9.68;100.00;100476.78;4933091;29;20083;-81
2023/03/22 15:52:08;;;;;;;;;;;;;;;;;;;;;
2023/03/22 15:55:13;;;;;;;10.32;4.43;;;;;;;10.05;100.00;100554.78;4890281;29;20040;-81
2023/03/22 15:58:19;;;;;;;9.73;5.05;;;;;;;10.04;100.00;100555.69;4911934;28;20058;-82
2023/03/22 16:01:16;;;;;;;8.77;4.57;;;;;;;10.00;100.00;100559.25;4995202;28;20108;-82
2023/03/22 16:07:10;;;;;;;9.85;4.72;;;;;;;9.60;100.00;100491.72;4982841;28;20065;-83
2023/03/22 16:12:58;;;;;;;12.20;4.40;;;;;;;9.53;100.00;100475.41;5010553;28;20040;-83
2023/03/22 16:15:43;;;;;;;9.13;4.90;;;;;;;10.08;100.00;100561.69;5064294;28;20111;-83
2023/03/22 16:18:21;;;;;;;11.45;4.93;;;;;;;9.69;100.00;100501.06;5041409;28;20097;-84
2023/03/22 16:23:49;;;;;;;9.65;5.38;;;;;;;9.80;100.00;100509.44;5070851;28;20370;-84
2023/03/22 16:26:16;;;;;;;8.15;4.80;;;;;;;9.89;100.00;100523.97;5071862;28;20648;-84
2023/03/22 16:28:56;;;;;;;14.52;5.40;;;;;;;10.13;100.00;100556.34;5071226;28;20376;-85
2023/03/22 16:31:46;;;;;;;11.50;5.47;;;;;;;10.19;100.00;100558.78;5061111;28;20047;-86
2023/03/22 16:34:27;;;;;;;13.82;5.93;;;;;;;10.03;100.00;100520.09;5071964;28;20104;-85
2023/03/22 16:36:54;;;;;;;14.77;5.75;;;;;;;9.78;100.00;100485.22;5070618;28;20484;-85
2023/03/22 16:39:41;;;;;;;10.75;5.88;;;;;;;9.96;100.00;100526.38;5058146;28;20107;-86
2023/03/22 16:42:38;;;;;;;13.05;5.50;;;;;;;9.69;100.00;100485.44;5070556;28;20419;-85
2023/03/22 16:48:40;;;;;;;;;;;;;;;;;;;;;
2023/03/22 17:01:25;;;;;;;9.80;7.15;;;;;;;9.51;100.00;100471.97;4933003;28;20032;-85
2023/03/22 17:03:51;;;;;;;11.88;6.10;;;;;;;9.61;100.00;100483.00;5017520;28;20435;-84
2023/03/22 17:06:25;;;;;;;14.38;6.03;;;;;;;9.37;100.00;100453.25;5016810;28;20384;-84
2023/03/22 17:09:39;;;;;;;10.73;6.55;;;;;;;9.77;100.00;100510.38;5021640;28;20037;-84
2023/03/22 17:12:21;;;;;;;13.02;6.28;;;;;;;9.30;100.00;100436.09;5012456;28;20759;-85
2023/03/22 17:18:55;;;;;;;11.80;6.38;;;;;;;9.71;100.00;100520.97;5031080;28;20032;-84
2023/03/22 17:28:26;;;;;;;11.07;6.22;;;;;;;9.46;100.00;100489.47;5027860;28;20557;-84
2023/03/22 17:30:54;;;;;;;10.68;6.93;;;;;;;9.45;100.00;100492.09;5060973;28;20116;-84
2023/03/22 17:33:23;;;;;;;13.95;8.75;;;;;;;9.34;100.00;100479.34;5074088;28;20020;-84
2023/03/22 17:35:54;;;;;;;15.10;9.88;;;;;;;9.12;100.00;100442.59;5074265;28;20081;-84
2023/03/22 17:52:25;;;;;;;16.13;9.85;;;;;;;9.27;100.00;100483.84;4998433;28;20638;-83
2023/03/22 17:55:41;;;;;;;17.02;10.70;;;;;;;9.02;100.00;100451.50;5003322;28;20538;-83
2023/03/22 17:58:18;;;;;;;16.85;10.73;;;;;;;9.35;100.00;100502.75;4919151;29;20192;-84
2023/03/22 18:05:00;;;;;;;16.05;9.68;;;;;;;9.53;100.00;100535.25;4839945;29;20065;-83
2023/03/22 18:07:26;;;;;;;17.08;8.98;;;;;;;9.51;100.00;100518.81;4891768;29;20048;-84
2023/03/22 18:09:54;;;;;;;18.60;10.40;;;;;;;9.52;100.00;100517.94;5051716;28;20039;-84
2023/03/22 18:12:19;;;;;;;17.92;9.10;;;;;;;9.54;100.00;100523.94;5074048;28;20017;-83
2023/03/22 18:14:45;;;;;;;13.80;8.25;;;;;;;9.53;100.00;100522.25;5058737;28;20017;-83
2023/03/22 18:17:13;;;;;;;12.98;8.13;;;;;;;9.53;100.00;100517.03;5064358;28;20150;-84
2023/03/22 18:19:39;;;;;;;12.50;7.53;;;;;;;9.54;100.00;100513.53;5069292;28;20487;-84
2023/03/22 18:22:05;;;;;;;11.77;7.55;;;;;;;9.47;100.00;100504.19;5072892;28;20024;-83
2023/03/22 18:24:30;;;;;;;13.27;7.10;;;;;;;9.54;100.00;100512.69;5073414;28;20040;-84
2023/03/22 18:27:01;;;;;;;13.30;7.38;;;;;;;9.53;100.00;100511.84;5059722;28;20069;-84
2023/03/22 18:29:27;;;;;;;11.40;6.45;;;;;;;9.54;100.00;100502.28;5073001;28;20025;-84
2023/03/22 18:31:56;;;;;;;14.65;7.32;;;;;;;9.47;100.00;100485.97;5073394;28;20507;-84
2023/03/22 18:34:24;;;;;;;12.50;7.07;;;;;;;9.48;100.00;100486.81;5065980;28;20013;-84
2023/03/22 18:36:49;;;;;;;13.43;7.07;;;;;;;9.56;100.00;100495.31;5066064;28;20115;-84
2023/03/22 18:39:16;;;;;;;13.38;6.80;;;;;;;9.56;100.00;100501.34;5073297;28;20126;-85
2023/03/22 18:41:50;;;;;;;14.50;7.32;;;;;;;9.53;100.00;100493.63;5073054;28;20031;-84
2023/03/22 18:44:17;;;;;;;11.48;6.82;;;;;;;9.56;100.00;100501.34;5058463;28;20483;-85
2023/03/22 18:46:43;;;;;;;13.57;7.30;;;;;;;9.48;100.00;100487.69;5073027;28;20030;-85
2023/03/22 18:49:09;;;;;;;14.75;7.38;;;;;;;9.50;100.00;100504.09;5073206;28;20111;-85
2023/03/22 18:51:35;;;;;;;15.00;7.00;;;;;;;9.49;100.00;100498.97;5072497;28;20100;-85
2023/03/22 18:54:00;;;;;;;18.77;7.75;;;;;;;9.55;100.00;100499.66;5059164;28;20025;-85
2023/03/22 18:56:26;;;;;;;14.00;7.30;;;;;;;9.50;100.00;100479.84;5072421;28;20020;-85
2023/03/22 18:58:51;;;;;;;13.80;7.22;;;;;;;9.53;100.00;100474.56;5072725;28;20494;-85
2023/03/22 19:01:16;;;;;;;14.90;9.15;;;;;;;9.46;100.00;100455.63;5072842;28;20031;-85
2023/03/22 19:03:41;;;;;;;14.32;7.32;;;;;;;9.52;100.00;100468.50;5071913;28;20029;-86
2023/03/22 19:06:14;;;;;;;13.95;7.38;;;;;;;9.46;100.00;100467.81;5089329;28;20236;-86
2023/03/22 19:08:39;;;;;;;12.38;7.82;;;;;;;9.51;100.00;100452.91;5083520;28;20032;-85
2023/03/22 19:11:05;;;;;;;16.00;8.13;;;;;;;9.50;100.00;100459.03;5087728;28;20036;-86
2023/03/22 19:13:30;;;;;;;12.90;8.18;;;;;;;9.53;100.00;100452.00;5092808;28;20024;-85
2023/03/22 19:16:01;;;;;;;14.60;8.05;;;;;;;9.45;100.00;100425.31;5093286;28;20102;-85
2023/03/22 19:18:28;;;;;;;15.40;7.85;;;;;;;9.49;100.00;100437.34;5078222;28;20103;-85
2023/03/22 19:20:53;;;;;;;14.05;8.60;;;;;;;9.54;100.00;100461.50;5092786;28;20471;-85
2023/03/22 19:23:18;;;;;;;16.45;8.10;;;;;;;9.52;100.00;100450.28;5092879;28;20034;-85
2023/03/22 19:25:45;;;;;;;13.82;8.63;;;;;;;9.54;100.00;100450.22;5091892;28;20020;-84
2023/03/22 19:28:11;;;;;;;13.52;8.73;;;;;;;9.46;100.00;100436.56;5092643;28;20495;-84
2023/03/22 19:30:36;;;;;;;18.42;9.38;;;;;;;9.56;100.00;100446.72;5092515;28;20082;-85
2023/03/22 19:33:02;;;;;;;16.70;9.73;;;;;;;9.54;100.00;100434.63;5091952;28;20108;-84
2023/03/22 19:35:27;;;;;;;16.67;9.70;;;;;;;9.59;100.00;100443.19;5092811;28;20443;-84
2023/03/22 19:37:52;;;;;;;17.63;9.70;;;;;;;9.61;100.00;100431.84;5093029;28;20069;-85
2023/03/22 19:40:18;;;;;;;18.55;9.35;;;;;;;9.53;100.00;100425.97;5091966;28;20040;-84
2023/03/22 19:42:43;;;;;;;18.98;10.55;;;;;;;9.56;100.00;100425.88;5092422;28;20028;-84
2023/03/22 19:45:09;;;;;;;16.80;10.20;;;;;;;9.58;100.00;100431.03;5092739;28;20055;-84
2023/03/22 19:47:34;;;;;;;23.33;10.75;;;;;;;9.55;100.00;100415.53;5091414;28;20028;-84
2023/03/22 19:50:00;;;;;;;17.15;11.52;;;;;;;9.59;100.00;100423.22;5091810;28;20030;-84
2023/03/22 19:52:25;;;;;;;18.60;10.68;;;;;;;9.56;100.00;100418.06;5091616;28;20058;-84
2023/03/22 19:54:51;;;;;;;20.42;11.18;;;;;;;9.51;100.00;100411.28;5091848;28;20024;-84
2023/03/22 19:57:17;;;;;;;16.98;11.10;;;;;;;9.61;100.00;100434.44;5092374;28;20024;-84
2023/03/22 19:59:43;;;;;;;20.38;10.65;;;;;;;9.58;100.00;100429.31;5091697;28;20028;-84
2023/03/22 20:02:09;;;;;;;17.83;11.60;;;;;;;9.55;100.00;100431.16;5092462;28;20034;-85
2023/03/22 20:04:36;;;;;;;14.25;11.02;;;;;;;9.59;100.00;100441.44;5091976;28;20553;-85
2023/03/22 20:07:01;;;;;;;17.55;11.05;;;;;;;9.48;100.00;100420.03;5092106;28;20828;-84
2023/03/22 20:09:27;;;;;;;20.00;12.13;;;;;;;9.62;100.00;100437.91;5092494;28;20071;-85
2023/03/22 20:11:52;;;;;;;20.23;11.13;;;;;;;9.61;100.00;100434.44;5092490;28;20088;-84
2023/03/22 20:14:17;;;;;;;17.58;11.40;;;;;;;9.53;100.00;100433.78;5091803;28;20019;-85
2023/03/22 20:16:43;;;;;;;18.48;11.02;;;;;;;9.61;100.00;100450.06;5092823;28;20510;-85
2023/03/22 20:19:08;;;;;;;17.80;11.50;;;;;;;9.63;100.00;100442.19;5096388;28;20055;-85
2023/03/22 20:21:37;;;;;;;19.60;11.30;;;;;;;9.61;100.00;100431.84;5094895;28;20383;-86
2023/03/22 20:24:03;;;;;;;18.95;10.93;;;;;;;9.61;100.00;100429.25;5085869;28;20468;-88
2023/03/22 20:26:29;;;;;;;18.70;10.93;;;;;;;9.63;100.00;100436.13;5092405;28;20020;-88
2023/03/22 20:28:55;;;;;;;18.02;11.40;;;;;;;9.57;100.00;100421.53;5095408;28;20236;-86
2023/03/22 20:31:21;;;;;;;18.67;11.43;;;;;;;9.62;100.00;100432.69;5096276;28;20020;-88
2023/03/22 20:33:46;;;;;;;14.45;10.52;;;;;;;9.53;100.00;100402.53;5093612;28;20074;-87
2023/03/22 20:36:12;;;;;;;15.18;9.65;;;;;;;9.57;100.00;100411.97;5074703;28;20024;-87